Time,TemperatureF,DewpointF,PressureIn,WindDirection,WindDirectionDegrees,WindSpeedMPH,WindSpeedGustMPH,Humidity,HourlyPrecipIn,Conditions,Clouds,dailyrainin,SoftwareType,DateUTC
2013-12-06 00:00:00,36.1,35.3,30.06,East,97,10.0,14.0,97,0.00,,,0.63,Wunderground v.1.15,2013-12-06 09:00:00,
2013-12-06 00:05:00,36.1,35.3,30.06,East,92,9.0,14.0,97,0.00,,,0.63,Wunderground v.1.15,2013-12-06 09:05:00,
2013-12-06 00:10:00,36.0,35.2,30.07,ENE,78,9.0,9.0,97,0.00,,,0.63,Wunderground v.1.15,2013-12-06 09:10:00,
2013-12-06 00:15:00,36.0,35.5,30.07,ESE,109,9.0,9.0,98,0.00,,,0.64,Wunderground v.1.15,2013-12-06 09:15:00,
2013-12-06 00:20:00,35.9,35.1,30.07,East,88,9.0,9.0,97,0.00,,,0.64,Wunderground v.1.15,2013-12-06 09:20:00,
2013-12-06 00:25:00,35.7,34.9,30.07,ESE,116,9.0,11.0,97,0.00,,,0.64,Wunderground v.1.15,2013-12-06 09:25:00,
2013-12-06 00:30:00,35.5,34.7,30.07,East,94,9.0,9.0,97,0.00,,,0.64,Wunderground v.1.15,2013-12-06 09:30:00,
2013-12-06 00:35:00,35.2,34.4,30.08,ESE,106,11.0,12.0,97,0.00,,,0.64,Wunderground v.1.15,2013-12-06 09:35:00,
2013-12-06 00:40:00,35.2,34.4,30.07,East,97,11.0,11.0,97,0.00,,,0.64,Wunderground v.1.15,2013-12-06 09:40:00,
2013-12-06 00:45:00,35.2,34.4,30.08,East,101,9.0,11.0,97,0.00,,,0.64,Wunderground v.1.15,2013-12-06 09:45:00,
2013-12-06 00:55:00,34.7,33.9,30.08,ESE,119,8.0,9.0,97,0.00,,,0.64,Wunderground v.1.15,2013-12-06 09:55:00,
2013-12-06 01:00:00,34.6,34.1,30.08,ESE,119,8.0,11.0,98,0.00,,,0.64,Wunderground v.1.15,2013-12-06 10:00:00,
2013-12-06 01:05:00,34.6,34.1,30.09,ESE,110,9.0,15.0,98,0.00,,,0.64,Wunderground v.1.15,2013-12-06 10:05:00,
2013-12-06 01:10:00,34.3,33.8,30.09,ESE,115,10.0,12.0,98,0.00,,,0.64,Wunderground v.1.15,2013-12-06 10:10:00,
2013-12-06 01:15:00,34.1,33.6,30.09,ESE,103,11.0,12.0,98,0.00,,,0.64,Wunderground v.1.15,2013-12-06 10:15:00,
2013-12-06 01:20:00,34.0,33.5,30.09,ESE,107,11.0,11.0,98,0.00,,,0.64,Wunderground v.1.15,2013-12-06 10:20:00,
2013-12-06 01:25:00,33.9,33.4,30.09,ESE,113,9.0,11.0,98,0.00,,,0.64,Wunderground v.1.15,2013-12-06 10:25:00,
2013-12-06 01:30:00,33.8,33.3,30.09,SE,130,7.0,7.0,98,0.00,,,0.64,Wunderground v.1.15,2013-12-06 10:30:00,
2013-12-06 01:35:00,33.8,33.3,30.09,ESE,114,7.0,7.0,98,0.00,,,0.64,Wunderground v.1.15,2013-12-06 10:35:00,
2013-12-06 01:40:00,33.8,33.3,30.09,ESE,103,7.0,11.0,98,0.00,,,0.64,Wunderground v.1.15,2013-12-06 10:40:00,
2013-12-06 01:50:00,33.7,33.2,30.08,ESE,104,9.0,12.0,98,0.00,,,0.64,Wunderground v.1.15,2013-12-06 10:50:00,
2013-12-06 01:55:00,33.6,33.1,30.08,ESE,102,9.0,12.0,98,0.00,,,0.65,Wunderground v.1.15,2013-12-06 10:55:00,
2013-12-06 02:00:00,33.6,33.1,30.09,ESE,111,9.0,9.0,98,0.00,,,0.65,Wunderground v.1.15,2013-12-06 11:00:00,
2013-12-06 02:05:00,33.5,33.0,30.09,East,89,8.0,9.0,98,0.00,,,0.65,Wunderground v.1.15,2013-12-06 11:05:00,
2013-12-06 02:15:00,33.4,32.9,30.09,East,101,8.0,8.0,98,0.00,,,0.65,Wunderground v.1.15,2013-12-06 11:15:00,
2013-12-06 02:20:00,33.4,32.9,30.09,ESE,112,8.0,8.0,98,0.00,,,0.65,Wunderground v.1.15,2013-12-06 11:20:00,
2013-12-06 02:25:00,33.4,32.9,30.09,ESE,111,7.0,8.0,98,0.00,,,0.00,Wunderground v.1.15,2013-12-06 11:25:00,
2013-12-06 02:30:00,33.4,32.9,30.09,East,99,7.0,7.0,98,0.00,,,0.00,Wunderground v.1.15,2013-12-06 11:30:00,
2013-12-06 02:35:00,33.4,32.9,30.09,ESE,103,7.0,7.0,98,0.00,,,0.00,Wunderground v.1.15,2013-12-06 11:35:00,
2013-12-06 02:40:00,33.4,32.9,30.09,ESE,112,7.0,7.0,98,0.00,,,0.00,Wunderground v.1.15,2013-12-06 11:40:00,
2013-12-06 02:45:00,33.3,32.8,30.09,ESE,111,6.0,7.0,98,0.00,,,0.00,Wunderground v.1.15,2013-12-06 11:45:00,
2013-12-06 02:50:00,33.3,32.8,30.09,East,96,6.0,6.0,98,0.00,,,0.00,Wunderground v.1.15,2013-12-06 11:50:00,
2013-12-06 02:55:00,33.3,32.8,30.09,ESE,109,6.0,6.0,98,0.00,,,0.00,Wunderground v.1.15,2013-12-06 11:55:00,
2013-12-06 03:10:00,33.3,32.8,30.09,East,98,7.0,7.0,98,0.00,,,0.00,Wunderground v.1.15,2013-12-06 12:10:00,
2013-12-06 03:15:00,33.3,32.8,30.09,East,99,6.0,7.0,98,0.00,,,0.00,Wunderground v.1.15,2013-12-06 12:15:00,
2013-12-06 03:25:00,33.3,32.8,30.09,East,96,6.0,7.0,98,0.00,,,0.00,Wunderground v.1.15,2013-12-06 12:25:00,
2013-12-06 03:30:00,33.3,32.8,30.09,East,92,6.0,6.0,98,0.00,,,0.00,Wunderground v.1.15,2013-12-06 12:30:00,
2013-12-06 03:35:00,33.3,32.8,30.09,East,96,6.0,6.0,98,0.00,,,0.00,Wunderground v.1.15,2013-12-06 12:35:00,
2013-12-06 03:40:00,33.3,32.8,30.09,East,91,6.0,6.0,98,0.00,,,0.00,Wunderground v.1.15,2013-12-06 12:40:00,
2013-12-06 03:45:00,33.2,32.7,30.09,ENE,78,6.0,6.0,98,0.00,,,0.00,Wunderground v.1.15,2013-12-06 12:45:00,
2013-12-06 03:50:00,33.2,32.7,30.09,East,92,5.0,6.0,98,0.00,,,0.00,Wunderground v.1.15,2013-12-06 12:50:00,
2013-12-06 03:55:00,33.2,32.7,30.09,ENE,74,5.0,6.0,98,0.00,,,0.00,Wunderground v.1.15,2013-12-06 12:55:00,
2013-12-06 04:00:00,33.2,32.7,30.09,ESE,103,4.0,4.0,98,0.00,,,0.00,Wunderground v.1.15,2013-12-06 13:00:00,
2013-12-06 04:10:00,33.2,32.7,30.10,ENE,74,4.0,4.0,98,0.00,,,0.00,Wunderground v.1.15,2013-12-06 13:10:00,
2013-12-06 04:15:00,33.2,32.7,30.10,East,88,5.0,5.0,98,0.00,,,0.00,Wunderground v.1.15,2013-12-06 13:15:00,
2013-12-06 04:20:00,33.2,32.7,30.10,East,91,5.0,5.0,98,0.00,,,0.00,Wunderground v.1.15,2013-12-06 13:20:00,
2013-12-06 04:25:00,33.2,32.7,30.10,ESE,105,4.0,6.0,98,0.00,,,0.00,Wunderground v.1.15,2013-12-06 13:25:00,
2013-12-06 04:30:00,33.2,32.7,30.10,East,96,5.0,6.0,98,0.00,,,0.00,Wunderground v.1.15,2013-12-06 13:30:00,
2013-12-06 04:35:00,33.2,32.7,30.10,East,88,4.0,6.0,98,0.00,,,0.00,Wunderground v.1.15,2013-12-06 13:35:00,
2013-12-06 04:40:00,33.2,32.7,30.10,East,82,4.0,4.0,98,0.00,,,0.00,Wunderground v.1.15,2013-12-06 13:40:00,
2013-12-06 04:45:00,33.2,32.7,30.10,East,95,4.0,7.0,98,0.00,,,0.00,Wunderground v.1.15,2013-12-06 13:45:00,
2013-12-06 04:50:00,33.2,32.7,30.10,East,94,4.0,6.0,98,0.00,,,0.00,Wunderground v.1.15,2013-12-06 13:50:00,
2013-12-06 04:55:00,33.2,32.7,30.10,East,95,4.0,7.0,98,0.00,,,0.00,Wunderground v.1.15,2013-12-06 13:55:00,
2013-12-06 05:00:00,33.1,32.6,30.10,East,86,5.0,5.0,98,0.00,,,0.00,Wunderground v.1.15,2013-12-06 14:00:00,
2013-12-06 05:05:00,33.0,32.5,30.09,East,93,6.0,6.0,98,0.00,,,0.00,Wunderground v.1.15,2013-12-06 14:05:00,
2013-12-06 05:15:00,32.9,32.4,30.10,ESE,103,5.0,6.0,98,0.00,,,0.00,Wunderground v.1.15,2013-12-06 14:15:00,
2013-12-06 05:20:00,32.9,32.4,30.09,ESE,103,5.0,6.0,98,0.00,,,0.00,Wunderground v.1.15,2013-12-06 14:20:00,
2013-12-06 05:25:00,32.9,32.4,30.10,ESE,109,5.0,6.0,98,0.00,,,0.00,Wunderground v.1.15,2013-12-06 14:25:00,
2013-12-06 05:30:00,32.9,32.4,30.10,East,99,4.0,7.0,98,0.00,,,0.00,Wunderground v.1.15,2013-12-06 14:30:00,
2013-12-06 05:35:00,32.9,32.4,30.09,East,84,5.0,7.0,98,0.00,,,0.00,Wunderground v.1.15,2013-12-06 14:35:00,
2013-12-06 05:40:00,32.9,32.4,30.09,East,101,5.0,5.0,98,0.00,,,0.00,Wunderground v.1.15,2013-12-06 14:40:00,
2013-12-06 05:45:00,32.9,32.4,30.09,East,92,4.0,5.0,98,0.00,,,0.00,Wunderground v.1.15,2013-12-06 14:45:00,
2013-12-06 05:50:00,32.9,32.4,30.09,East,94,4.0,4.0,98,0.00,,,0.00,Wunderground v.1.15,2013-12-06 14:50:00,
2013-12-06 05:55:00,32.9,32.4,30.10,East,94,3.0,4.0,98,0.00,,,0.00,Wunderground v.1.15,2013-12-06 14:55:00,
2013-12-06 06:00:00,33.0,32.5,30.10,East,88,3.0,3.0,98,0.00,,,0.00,Wunderground v.1.15,2013-12-06 15:00:00,
2013-12-06 06:05:00,33.0,32.5,30.10,East,84,3.0,3.0,98,0.00,,,0.00,Wunderground v.1.15,2013-12-06 15:05:00,
2013-12-06 06:10:00,33.0,32.5,30.10,East,79,2.0,5.0,98,0.00,,,0.00,Wunderground v.1.15,2013-12-06 15:10:00,
2013-12-06 06:15:00,33.0,32.5,30.09,ENE,59,3.0,6.0,98,0.00,,,0.00,Wunderground v.1.15,2013-12-06 15:15:00,
2013-12-06 06:20:00,33.1,32.6,30.09,ENE,67,3.0,3.0,98,0.00,,,0.00,Wunderground v.1.15,2013-12-06 15:20:00,
2013-12-06 06:25:00,33.1,32.6,30.09,NE,35,4.0,4.0,98,0.00,,,0.00,Wunderground v.1.15,2013-12-06 15:25:00,
2013-12-06 06:30:00,33.2,32.7,30.09,NE,38,4.0,5.0,98,0.00,,,0.00,Wunderground v.1.15,2013-12-06 15:30:00,
2013-12-06 06:35:00,33.2,32.7,30.09,NE,37,4.0,6.0,98,0.00,,,0.00,Wunderground v.1.15,2013-12-06 15:35:00,
2013-12-06 06:40:00,33.2,32.7,30.09,NNE,33,4.0,5.0,98,0.00,,,0.00,Wunderground v.1.15,2013-12-06 15:40:00,
2013-12-06 06:45:00,33.3,32.8,30.09,ENE,59,4.0,5.0,98,0.00,,,0.00,Wunderground v.1.15,2013-12-06 15:45:00,
2013-12-06 06:50:00,33.3,32.8,30.09,East,83,4.0,4.0,98,0.00,,,0.00,Wunderground v.1.15,2013-12-06 15:50:00,
2013-12-06 06:55:00,33.3,32.8,30.09,East,83,2.0,4.0,98,0.00,,,0.00,Wunderground v.1.15,2013-12-06 15:55:00,
2013-12-06 07:00:00,33.3,32.8,30.08,East,82,1.0,1.0,98,0.00,,,0.00,Wunderground v.1.15,2013-12-06 16:00:00,
2013-12-06 07:05:00,33.3,32.8,30.08,NE,53,2.0,5.0,98,0.00,,,0.00,Wunderground v.1.15,2013-12-06 16:05:00,
2013-12-06 07:10:00,33.4,32.9,30.08,NNE,26,3.0,3.0,98,0.00,,,0.00,Wunderground v.1.15,2013-12-06 16:10:00,
2013-12-06 07:20:00,33.5,32.7,30.08,NNE,26,0.0,1.0,97,0.00,,,0.00,Wunderground v.1.15,2013-12-06 16:20:00,
2013-12-06 07:25:00,33.5,33.0,30.09,NNE,26,0.0,3.0,98,0.00,,,0.00,Wunderground v.1.15,2013-12-06 16:25:00,
2013-12-06 07:30:00,33.6,32.8,30.09,NE,55,2.0,3.0,97,0.00,,,0.00,Wunderground v.1.15,2013-12-06 16:30:00,
2013-12-06 07:35:00,33.7,32.9,30.09,NE,42,3.0,3.0,97,0.00,,,0.00,Wunderground v.1.15,2013-12-06 16:35:00,
2013-12-06 07:40:00,33.6,32.8,30.09,NE,38,3.0,4.0,97,0.00,,,0.00,Wunderground v.1.15,2013-12-06 16:40:00,
2013-12-06 07:45:00,33.6,32.8,30.09,NE,49,3.0,4.0,97,0.00,,,0.00,Wunderground v.1.15,2013-12-06 16:45:00,
2013-12-06 07:50:00,33.5,32.7,30.09,ENE,59,3.0,3.0,97,0.00,,,0.00,Wunderground v.1.15,2013-12-06 16:50:00,
2013-12-06 07:55:00,33.6,32.8,30.09,ENE,61,3.0,3.0,97,0.00,,,0.01,Wunderground v.1.15,2013-12-06 16:55:00,
2013-12-06 08:00:00,33.6,32.8,30.09,NE,49,4.0,6.0,97,0.00,,,0.01,Wunderground v.1.15,2013-12-06 17:00:00,
2013-12-06 08:05:00,33.6,32.8,30.09,ENE,76,3.0,6.0,97,0.00,,,0.01,Wunderground v.1.15,2013-12-06 17:05:00,
2013-12-06 08:10:00,33.6,32.8,30.08,ENE,74,2.0,2.0,97,0.00,,,0.01,Wunderground v.1.15,2013-12-06 17:10:00,
2013-12-06 08:15:00,33.6,32.8,30.08,ENE,74,1.0,2.0,97,0.00,,,0.01,Wunderground v.1.15,2013-12-06 17:15:00,
2013-12-06 08:20:00,33.7,32.9,30.08,NNE,29,1.0,1.0,97,0.00,,,0.01,Wunderground v.1.15,2013-12-06 17:20:00,
2013-12-06 08:25:00,33.7,32.9,30.07,NE,34,1.0,5.0,97,0.00,,,0.01,Wunderground v.1.15,2013-12-06 17:25:00,
2013-12-06 08:30:00,33.8,33.0,30.07,NE,53,1.0,3.0,97,0.00,,,0.01,Wunderground v.1.15,2013-12-06 17:30:00,
2013-12-06 08:35:00,33.8,33.0,30.07,NNE,25,2.0,3.0,97,0.00,,,0.02,Wunderground v.1.15,2013-12-06 17:35:00,
2013-12-06 08:40:00,33.5,32.5,30.06,NNE,25,1.0,1.0,96,0.00,,,0.02,Wunderground v.1.15,2013-12-06 17:40:00,
2013-12-06 08:45:00,33.4,32.4,30.06,NNE,25,0.0,1.0,96,0.00,,,0.02,Wunderground v.1.15,2013-12-06 17:45:00,
2013-12-06 08:50:00,33.2,32.2,30.06,NNE,25,0.0,0.0,96,0.00,,,0.02,Wunderground v.1.15,2013-12-06 17:50:00,
2013-12-06 08:55:00,33.1,32.3,30.06,NNE,25,0.0,0.0,97,0.00,,,0.02,Wunderground v.1.15,2013-12-06 17:55:00,
2013-12-06 09:00:00,33.0,32.2,30.06,NNE,25,0.0,0.0,97,0.00,,,0.02,Wunderground v.1.15,2013-12-06 18:00:00,
2013-12-06 09:05:00,33.0,32.2,30.06,NNE,25,0.0,0.0,97,0.00,,,0.02,Wunderground v.1.15,2013-12-06 18:05:00,
2013-12-06 09:10:00,33.0,32.2,30.06,NNE,25,0.0,0.0,97,0.00,,,0.02,Wunderground v.1.15,2013-12-06 18:10:00,
2013-12-06 09:20:00,33.1,32.3,30.05,NNE,25,0.0,0.0,97,0.00,,,0.03,Wunderground v.1.15,2013-12-06 18:20:00,
2013-12-06 09:25:00,33.2,32.4,30.05,NNE,25,0.0,0.0,97,0.00,,,0.03,Wunderground v.1.15,2013-12-06 18:25:00,
2013-12-06 09:30:00,33.3,32.8,30.05,NNE,25,0.0,0.0,98,0.00,,,0.03,Wunderground v.1.15,2013-12-06 18:30:00,
2013-12-06 09:35:00,33.4,32.9,30.04,NNE,25,0.0,2.0,98,0.00,,,0.03,Wunderground v.1.15,2013-12-06 18:35:00,
2013-12-06 09:45:00,34.6,34.1,30.03,North,355,4.0,8.0,98,0.00,,,0.04,Wunderground v.1.15,2013-12-06 18:45:00,
2013-12-06 09:50:00,35.1,34.6,30.03,North,360,8.0,8.0,98,0.00,,,0.04,Wunderground v.1.15,2013-12-06 18:50:00,
2013-12-06 09:55:00,35.1,34.3,30.03,North,355,8.0,11.0,97,0.00,,,0.04,Wunderground v.1.15,2013-12-06 18:55:00,
2013-12-06 10:00:00,35.2,34.4,30.03,NNE,15,8.0,13.0,97,0.00,,,0.04,Wunderground v.1.15,2013-12-06 19:00:00,
2013-12-06 10:05:00,35.2,34.2,30.02,NNE,21,9.0,13.0,96,0.00,,,0.05,Wunderground v.1.15,2013-12-06 19:05:00,
2013-12-06 10:10:00,35.5,34.5,30.02,NNE,19,10.0,11.0,96,0.00,,,0.05,Wunderground v.1.15,2013-12-06 19:10:00,
2013-12-06 10:15:00,35.7,34.7,30.02,NE,50,8.0,11.0,96,0.00,,,0.05,Wunderground v.1.15,2013-12-06 19:15:00,
2013-12-06 10:20:00,35.9,34.9,30.02,NE,36,6.0,6.0,96,0.00,,,0.05,Wunderground v.1.15,2013-12-06 19:20:00,
2013-12-06 10:25:00,36.3,35.3,30.02,NE,34,6.0,6.0,96,0.00,,,0.05,Wunderground v.1.15,2013-12-06 19:25:00,
2013-12-06 10:30:00,36.4,35.4,30.02,ENE,59,4.0,4.0,96,0.00,,,0.05,Wunderground v.1.15,2013-12-06 19:30:00,
2013-12-06 10:35:00,36.6,35.6,30.01,North,5,3.0,7.0,96,0.00,,,0.05,Wunderground v.1.15,2013-12-06 19:35:00,
2013-12-06 10:40:00,36.8,35.8,30.01,NNE,18,4.0,7.0,96,0.00,,,0.05,Wunderground v.1.15,2013-12-06 19:40:00,
2013-12-06 10:45:00,36.9,35.9,30.01,East,79,4.0,7.0,96,0.00,,,0.05,Wunderground v.1.15,2013-12-06 19:45:00,
2013-12-06 10:50:00,36.9,35.9,30.01,NNE,27,5.0,10.0,96,0.00,,,0.05,Wunderground v.1.15,2013-12-06 19:50:00,
2013-12-06 10:55:00,37.0,36.0,30.01,NNE,23,6.0,10.0,96,0.00,,,0.06,Wunderground v.1.15,2013-12-06 19:55:00,
2013-12-06 11:00:00,37.0,36.0,30.01,ENE,57,7.0,7.0,96,0.00,,,0.06,Wunderground v.1.15,2013-12-06 20:00:00,
2013-12-06 11:05:00,37.0,36.0,30.01,ESE,110,6.0,7.0,96,0.06,,,0.07,Wunderground v.1.15,2013-12-06 20:05:00,
2013-12-06 11:10:00,36.7,35.7,30.01,SE,136,4.0,4.0,96,0.06,,,0.07,Wunderground v.1.15,2013-12-06 20:10:00,
2013-12-06 11:15:00,36.5,35.5,30.01,SE,132,3.0,6.0,96,0.06,,,0.07,Wunderground v.1.15,2013-12-06 20:15:00,
2013-12-06 11:20:00,36.4,35.4,30.01,ESE,119,3.0,5.0,96,0.06,,,0.08,Wunderground v.1.15,2013-12-06 20:20:00,
2013-12-06 11:25:00,36.4,35.6,30.00,NE,34,4.0,7.0,97,0.06,,,0.08,Wunderground v.1.15,2013-12-06 20:25:00,
2013-12-06 11:30:00,36.6,35.8,30.00,ESE,105,3.0,3.0,97,0.06,,,0.09,Wunderground v.1.15,2013-12-06 20:30:00,
2013-12-06 11:35:00,36.6,35.8,30.00,NE,38,2.0,4.0,97,0.06,,,0.09,Wunderground v.1.15,2013-12-06 20:35:00,
2013-12-06 11:40:00,36.8,36.0,29.99,NNE,33,3.0,8.0,97,0.04,,,0.09,Wunderground v.1.15,2013-12-06 20:40:00,
2013-12-06 11:45:00,36.9,36.1,29.99,NE,34,5.0,9.0,97,0.00,,,0.10,Wunderground v.1.15,2013-12-06 20:45:00,
2013-12-06 11:50:00,37.0,36.2,29.99,NE,44,6.0,6.0,97,0.00,,,0.10,Wunderground v.1.15,2013-12-06 20:50:00,
2013-12-06 11:55:00,37.0,36.0,29.99,NE,42,7.0,7.0,96,0.00,,,0.10,Wunderground v.1.15,2013-12-06 20:55:00,
2013-12-06 12:00:00,37.0,36.0,29.99,NE,49,7.0,7.0,96,0.04,,,0.11,Wunderground v.1.15,2013-12-06 21:00:00,
2013-12-06 12:05:00,36.9,35.9,29.98,NNE,33,7.0,7.0,96,0.04,,,0.11,Wunderground v.1.15,2013-12-06 21:05:00,
2013-12-06 12:10:00,37.0,36.0,29.98,NE,36,9.0,12.0,96,0.04,,,0.11,Wunderground v.1.15,2013-12-06 21:10:00,
2013-12-06 12:15:00,37.0,36.0,29.99,ENE,73,9.0,12.0,96,0.04,,,0.11,Wunderground v.1.15,2013-12-06 21:15:00,
2013-12-06 12:20:00,36.9,35.9,29.98,NNE,33,9.0,11.0,96,0.00,,,0.12,Wunderground v.1.15,2013-12-06 21:20:00,
2013-12-06 12:25:00,36.8,35.8,29.98,ENE,61,9.0,11.0,96,0.00,,,0.12,Wunderground v.1.15,2013-12-06 21:25:00,
2013-12-06 12:30:00,36.8,35.8,29.98,NE,50,8.0,8.0,96,0.00,,,0.12,Wunderground v.1.15,2013-12-06 21:30:00,
2013-12-06 12:35:00,36.7,35.7,29.98,NNE,19,9.0,11.0,96,0.00,,,0.12,Wunderground v.1.15,2013-12-06 21:35:00,
2013-12-06 12:40:00,36.7,35.7,29.98,NE,38,11.0,11.0,96,0.00,,,0.12,Wunderground v.1.15,2013-12-06 21:40:00,
2013-12-06 12:45:00,36.6,35.6,29.99,NNE,26,11.0,11.0,96,0.00,,,0.13,Wunderground v.1.15,2013-12-06 21:45:00,
2013-12-06 12:50:00,36.5,35.5,29.99,East,82,8.0,8.0,96,0.00,,,0.13,Wunderground v.1.15,2013-12-06 21:50:00,
2013-12-06 12:55:00,36.4,35.4,29.99,East,94,6.0,8.0,96,0.00,,,0.13,Wunderground v.1.15,2013-12-06 21:55:00,
2013-12-06 13:00:00,37.1,36.3,29.99,ESE,123,5.0,9.0,97,0.00,,,0.13,Wunderground v.1.15,2013-12-06 22:00:00,
2013-12-06 13:10:00,38.4,37.6,29.99,SSE,161,7.0,7.0,97,0.00,,,0.13,Wunderground v.1.15,2013-12-06 22:10:00,
2013-12-06 13:15:00,38.7,37.9,29.99,East,93,7.0,7.0,97,0.00,,,0.13,Wunderground v.1.15,2013-12-06 22:15:00,
2013-12-06 13:20:00,38.4,37.4,29.99,ESE,117,6.0,6.0,96,0.00,,,0.13,Wunderground v.1.15,2013-12-06 22:20:00,
2013-12-06 13:25:00,37.5,36.5,29.99,SSE,148,5.0,6.0,96,0.00,,,0.13,Wunderground v.1.15,2013-12-06 22:25:00,
2013-12-06 13:30:00,37.1,36.1,29.99,SE,137,4.0,6.0,96,0.00,,,0.14,Wunderground v.1.15,2013-12-06 22:30:00,
2013-12-06 13:35:00,36.7,35.7,29.99,ESE,117,3.0,6.0,96,0.00,,,0.14,Wunderground v.1.15,2013-12-06 22:35:00,
2013-12-06 13:40:00,36.7,35.9,29.98,SE,141,4.0,4.0,97,0.04,,,0.15,Wunderground v.1.15,2013-12-06 22:40:00,
2013-12-06 13:45:00,36.5,35.7,29.99,ESE,117,4.0,4.0,97,0.04,,,0.15,Wunderground v.1.15,2013-12-06 22:45:00,
2013-12-06 13:50:00,36.2,35.4,29.99,SE,135,3.0,6.0,97,0.04,,,0.15,Wunderground v.1.15,2013-12-06 22:50:00,
2013-12-06 13:55:00,36.1,35.3,29.98,SE,133,3.0,6.0,97,0.04,,,0.15,Wunderground v.1.15,2013-12-06 22:55:00,
2013-12-06 14:00:00,36.1,35.3,29.98,SE,133,3.0,5.0,97,0.00,,,0.15,Wunderground v.1.15,2013-12-06 23:00:00,
2013-12-06 14:05:00,36.0,35.2,29.98,SE,138,4.0,5.0,97,0.00,,,0.16,Wunderground v.1.15,2013-12-06 23:05:00,
2013-12-06 14:10:00,36.1,35.3,29.98,SE,142,4.0,4.0,97,0.00,,,0.16,Wunderground v.1.15,2013-12-06 23:10:00,
2013-12-06 14:20:00,36.4,35.9,29.99,SE,137,4.0,4.0,98,0.00,,,0.16,Wunderground v.1.15,2013-12-06 23:20:00,
2013-12-06 14:30:00,37.8,37.3,29.98,ESE,115,6.0,11.0,98,0.00,,,0.17,Wunderground v.1.15,2013-12-06 23:30:00,
2013-12-06 14:35:00,38.2,37.9,29.98,SE,127,7.0,11.0,99,0.06,,,0.18,Wunderground v.1.15,2013-12-06 23:35:00,
2013-12-06 14:40:00,37.9,37.4,29.98,SSE,150,7.0,8.0,98,0.07,,,0.19,Wunderground v.1.15,2013-12-06 23:40:00,
2013-12-06 14:45:00,37.8,37.3,29.98,SE,124,6.0,8.0,98,0.07,,,0.19,Wunderground v.1.15,2013-12-06 23:45:00,
2013-12-06 14:50:00,38.4,37.9,29.98,East,88,7.0,7.0,98,0.06,,,0.19,Wunderground v.1.15,2013-12-06 23:50:00,
2013-12-06 14:55:00,38.9,38.4,29.98,East,96,7.0,8.0,98,0.04,,,0.19,Wunderground v.1.15,2013-12-06 23:55:00,
2013-12-06 15:00:00,38.9,38.4,29.98,SE,126,8.0,8.0,98,0.04,,,0.20,Wunderground v.1.15,2013-12-07 00:00:00,
2013-12-06 15:05:00,39.2,38.9,29.98,East,94,8.0,12.0,99,0.08,,,0.21,Wunderground v.1.15,2013-12-07 00:05:00,
2013-12-06 15:10:00,39.3,38.8,29.98,ESE,123,9.0,9.0,98,0.08,,,0.21,Wunderground v.1.15,2013-12-07 00:10:00,
2013-12-06 15:15:00,39.2,38.7,29.98,SE,126,8.0,9.0,98,0.05,,,0.21,Wunderground v.1.15,2013-12-07 00:15:00,
2013-12-06 15:20:00,38.9,38.4,29.98,SE,130,7.0,7.0,98,0.04,,,0.22,Wunderground v.1.15,2013-12-07 00:20:00,
2013-12-06 15:25:00,38.9,38.4,29.98,ESE,110,6.0,9.0,98,0.04,,,0.22,Wunderground v.1.15,2013-12-07 00:25:00,
2013-12-06 15:30:00,38.4,37.9,29.99,SE,142,6.0,6.0,98,0.07,,,0.23,Wunderground v.1.15,2013-12-07 00:30:00,
2013-12-06 15:35:00,37.7,36.9,29.99,SE,133,5.0,6.0,97,0.07,,,0.23,Wunderground v.1.15,2013-12-07 00:35:00,
2013-12-06 15:40:00,37.1,36.3,29.99,SE,129,5.0,5.0,97,0.05,,,0.23,Wunderground v.1.15,2013-12-07 00:40:00,
2013-12-06 15:50:00,36.9,36.4,29.99,ESE,112,4.0,6.0,98,0.00,,,0.23,Wunderground v.1.15,2013-12-07 00:50:00,
2013-12-06 16:00:00,38.1,37.6,29.98,ESE,103,6.0,9.0,98,0.07,,,0.25,Wunderground v.1.15,2013-12-07 01:00:00,
2013-12-06 16:05:00,38.6,38.3,29.98,SE,127,8.0,9.0,99,0.07,,,0.25,Wunderground v.1.15,2013-12-07 01:05:00,
2013-12-06 16:10:00,38.5,38.2,29.98,SE,132,7.0,8.0,99,0.07,,,0.26,Wunderground v.1.15,2013-12-07 01:10:00,
2013-12-06 16:15:00,38.3,37.8,29.98,SE,125,7.0,8.0,98,0.07,,,0.26,Wunderground v.1.15,2013-12-07 01:15:00,
2013-12-06 16:20:00,38.3,37.8,29.98,ESE,123,7.0,8.0,98,0.06,,,0.27,Wunderground v.1.15,2013-12-07 01:20:00,
2013-12-06 16:25:00,38.0,37.5,29.98,SE,131,7.0,8.0,98,0.06,,,0.27,Wunderground v.1.15,2013-12-07 01:25:00,
2013-12-06 16:30:00,37.5,37.0,29.98,SE,135,5.0,5.0,98,0.05,,,0.27,Wunderground v.1.15,2013-12-07 01:30:00,
2013-12-06 16:35:00,37.1,36.6,29.99,SE,135,4.0,5.0,98,0.00,,,0.27,Wunderground v.1.15,2013-12-07 01:35:00,
2013-12-06 16:40:00,36.8,36.3,29.99,SE,144,4.0,5.0,98,0.00,,,0.27,Wunderground v.1.15,2013-12-07 01:40:00,
2013-12-06 16:45:00,36.7,36.2,29.99,SE,142,4.0,5.0,98,0.00,,,0.27,Wunderground v.1.15,2013-12-07 01:45:00,
2013-12-06 16:55:00,36.4,35.9,29.99,SE,133,3.0,4.0,98,0.09,,,0.29,Wunderground v.1.15,2013-12-07 01:55:00,
2013-12-06 17:00:00,36.3,35.8,29.99,SE,136,2.0,2.0,98,0.09,,,0.29,Wunderground v.1.15,2013-12-07 02:00:00,
2013-12-06 17:05:00,36.2,35.7,29.99,SE,136,1.0,2.0,98,0.06,,,0.29,Wunderground v.1.15,2013-12-07 02:05:00,
2013-12-06 17:10:00,36.2,35.7,29.99,SE,126,1.0,1.0,98,0.05,,,0.30,Wunderground v.1.15,2013-12-07 02:10:00,
2013-12-06 17:15:00,36.8,36.3,29.99,SE,126,3.0,6.0,98,0.08,,,0.31,Wunderground v.1.15,2013-12-07 02:15:00,
2013-12-06 17:20:00,37.4,37.1,30.00,SE,134,4.0,4.0,99,0.08,,,0.31,Wunderground v.1.15,2013-12-07 02:20:00,
2013-12-06 17:25:00,37.4,37.1,29.99,ESE,111,3.0,5.0,99,0.05,,,0.31,Wunderground v.1.15,2013-12-07 02:25:00,
2013-12-06 17:30:00,37.8,37.5,30.00,ESE,107,4.0,9.0,99,0.04,,,0.32,Wunderground v.1.15,2013-12-07 02:30:00,
2013-12-06 17:35:00,38.0,37.7,30.00,East,82,6.0,9.0,99,0.04,,,0.32,Wunderground v.1.15,2013-12-07 02:35:00,
2013-12-06 17:40:00,38.0,37.7,29.99,ESE,117,6.0,6.0,99,0.04,,,0.32,Wunderground v.1.15,2013-12-07 02:40:00,
2013-12-06 17:45:00,37.9,37.6,29.99,ESE,107,4.0,6.0,99,0.05,,,0.33,Wunderground v.1.15,2013-12-07 02:45:00,
2013-12-06 17:50:00,37.9,37.6,29.99,East,93,4.0,5.0,99,0.05,,,0.33,Wunderground v.1.15,2013-12-07 02:50:00,
2013-12-06 17:55:00,37.9,37.6,29.99,ESE,109,5.0,6.0,99,0.04,,,0.33,Wunderground v.1.15,2013-12-07 02:55:00,
2013-12-06 18:00:00,37.8,37.5,29.99,East,84,5.0,5.0,99,0.00,,,0.33,Wunderground v.1.15,2013-12-07 03:00:00,
2013-12-06 18:05:00,37.7,37.4,29.99,East,96,5.0,6.0,99,0.00,,,0.33,Wunderground v.1.15,2013-12-07 03:05:00,
2013-12-06 18:15:00,37.9,37.6,30.00,East,83,7.0,8.0,99,0.00,,,0.34,Wunderground v.1.15,2013-12-07 03:15:00,
2013-12-06 18:25:00,38.1,37.8,30.00,East,86,8.0,8.0,99,0.00,,,0.34,Wunderground v.1.15,2013-12-07 03:25:00,
2013-12-06 18:30:00,38.3,38.0,30.00,ESE,103,8.0,9.0,99,0.04,,,0.35,Wunderground v.1.15,2013-12-07 03:30:00,
2013-12-06 18:35:00,38.4,38.1,30.00,East,96,8.0,9.0,99,0.04,,,0.35,Wunderground v.1.15,2013-12-07 03:35:00,
2013-12-06 18:40:00,38.3,38.0,30.00,ESE,103,8.0,8.0,99,0.04,,,0.35,Wunderground v.1.15,2013-12-07 03:40:00,
2013-12-06 18:45:00,38.3,37.8,30.00,ESE,106,7.0,9.0,98,0.00,,,0.35,Wunderground v.1.15,2013-12-07 03:45:00,
2013-12-06 18:50:00,38.4,37.9,30.00,East,88,7.0,7.0,98,0.00,,,0.36,Wunderground v.1.15,2013-12-07 03:50:00,
2013-12-06 18:55:00,38.4,37.9,30.00,East,91,8.0,8.0,98,0.00,,,0.36,Wunderground v.1.15,2013-12-07 03:55:00,
2013-12-06 19:00:00,38.3,37.8,30.00,East,99,9.0,9.0,98,0.05,,,0.37,Wunderground v.1.15,2013-12-07 04:00:00,
2013-12-06 19:05:00,38.2,37.7,30.00,ESE,103,9.0,9.0,98,0.05,,,0.37,Wunderground v.1.15,2013-12-07 04:05:00,
2013-12-06 19:10:00,38.0,37.5,30.00,ENE,71,8.0,8.0,98,0.04,,,0.37,Wunderground v.1.15,2013-12-07 04:10:00,
2013-12-06 19:15:00,38.1,37.6,30.01,East,97,8.0,11.0,98,0.00,,,0.37,Wunderground v.1.15,2013-12-07 04:15:00,
2013-12-06 19:20:00,37.9,37.4,30.01,East,93,8.0,8.0,98,0.00,,,0.37,Wunderground v.1.15,2013-12-07 04:20:00,
2013-12-06 19:25:00,37.7,37.2,30.01,ESE,113,7.0,8.0,98,0.00,,,0.37,Wunderground v.1.15,2013-12-07 04:25:00,
2013-12-06 19:30:00,37.5,37.0,30.01,ESE,113,6.0,6.0,98,0.00,,,0.38,Wunderground v.1.15,2013-12-07 04:30:00,
2013-12-06 19:35:00,37.3,36.8,30.01,East,96,5.0,6.0,98,0.00,,,0.38,Wunderground v.1.15,2013-12-07 04:35:00,
2013-12-06 19:40:00,37.3,36.8,30.01,East,92,4.0,7.0,98,0.00,,,0.38,Wunderground v.1.15,2013-12-07 04:40:00,
2013-12-06 19:45:00,37.2,36.7,30.02,East,96,5.0,7.0,98,0.00,,,0.38,Wunderground v.1.15,2013-12-07 04:45:00,
2013-12-06 19:50:00,37.2,36.7,30.02,East,87,6.0,6.0,98,0.00,,,0.39,Wunderground v.1.15,2013-12-07 04:50:00,
2013-12-06 20:00:00,37.1,36.6,30.02,East,101,4.0,7.0,98,0.00,,,0.39,Wunderground v.1.15,2013-12-07 05:00:00,
2013-12-06 20:05:00,37.1,36.6,30.02,East,88,5.0,7.0,98,0.00,,,0.39,Wunderground v.1.15,2013-12-07 05:05:00,
2013-12-06 20:10:00,37.0,36.5,30.02,ESE,102,5.0,5.0,98,0.00,,,0.39,Wunderground v.1.15,2013-12-07 05:10:00,
2013-12-06 20:15:00,36.9,36.4,30.02,ESE,105,5.0,7.0,98,0.00,,,0.40,Wunderground v.1.15,2013-12-07 05:15:00,
2013-12-06 20:20:00,36.9,36.4,30.02,ESE,104,5.0,9.0,98,0.10,,,0.41,Wunderground v.1.15,2013-12-07 05:20:00,
2013-12-06 20:25:00,37.0,36.7,30.02,East,94,6.0,9.0,99,0.07,,,0.41,Wunderground v.1.15,2013-12-07 05:25:00,
2013-12-06 20:35:00,36.7,36.2,30.02,ESE,117,4.0,5.0,98,0.04,,,0.42,Wunderground v.1.15,2013-12-07 05:35:00,
2013-12-06 20:45:00,36.3,35.8,30.02,ESE,117,1.0,3.0,98,0.04,,,0.42,Wunderground v.1.15,2013-12-07 05:45:00,
2013-12-06 20:50:00,36.1,35.6,30.02,ESE,117,0.0,0.0,98,0.04,,,0.43,Wunderground v.1.15,2013-12-07 05:50:00,
2013-12-06 20:55:00,35.9,35.4,30.02,ESE,117,0.0,0.0,98,0.04,,,0.43,Wunderground v.1.15,2013-12-07 05:55:00,
2013-12-06 21:00:00,35.7,35.2,30.02,ESE,117,0.0,0.0,98,0.04,,,0.43,Wunderground v.1.15,2013-12-07 06:00:00,
2013-12-06 21:05:00,35.5,35.0,30.03,ESE,117,0.0,0.0,98,0.04,,,0.43,Wunderground v.1.15,2013-12-07 06:05:00,
2013-12-06 21:10:00,35.4,34.9,30.03,ESE,117,0.0,0.0,98,0.00,,,0.43,Wunderground v.1.15,2013-12-07 06:10:00,
2013-12-06 21:15:00,35.4,34.9,30.03,ESE,117,0.0,0.0,98,0.00,,,0.43,Wunderground v.1.15,2013-12-07 06:15:00,
2013-12-06 21:20:00,35.9,35.6,30.03,East,98,2.0,2.0,99,0.00,,,0.43,Wunderground v.1.15,2013-12-07 06:20:00,
2013-12-06 21:25:00,36.3,36.0,30.04,East,94,3.0,4.0,99,0.00,,,0.43,Wunderground v.1.15,2013-12-07 06:25:00,
2013-12-06 21:30:00,36.4,36.1,30.03,ENE,73,3.0,3.0,99,0.00,,,0.44,Wunderground v.1.15,2013-12-07 06:30:00,
2013-12-06 21:35:00,36.5,36.2,30.03,ENE,76,3.0,3.0,99,0.00,,,0.44,Wunderground v.1.15,2013-12-07 06:35:00,
2013-12-06 21:40:00,36.6,36.3,30.03,East,84,4.0,4.0,99,0.00,,,0.44,Wunderground v.1.15,2013-12-07 06:40:00,
2013-12-06 21:50:00,36.6,36.3,30.02,ENE,65,4.0,10.0,99,0.00,,,0.44,Wunderground v.1.15,2013-12-07 06:50:00,
2013-12-06 21:55:00,36.7,36.4,30.02,ENE,73,4.0,10.0,99,0.00,,,0.44,Wunderground v.1.15,2013-12-07 06:55:00,
2013-12-06 22:00:00,36.8,36.5,30.02,East,80,4.0,4.0,99,0.00,,,0.44,Wunderground v.1.15,2013-12-07 07:00:00,
2013-12-06 22:05:00,36.8,36.5,30.03,East,80,4.0,4.0,99,0.00,,,0.44,Wunderground v.1.15,2013-12-07 07:05:00,
2013-12-06 22:10:00,36.7,36.4,30.03,ENE,74,4.0,6.0,99,0.00,,,0.44,Wunderground v.1.15,2013-12-07 07:10:00,
2013-12-06 22:15:00,36.7,36.4,30.03,ENE,76,4.0,6.0,99,0.00,,,0.44,Wunderground v.1.15,2013-12-07 07:15:00,
2013-12-06 22:20:00,36.6,36.3,30.03,ENE,76,4.0,4.0,99,0.00,,,0.44,Wunderground v.1.15,2013-12-07 07:20:00,
2013-12-06 22:25:00,36.6,36.3,30.03,ENE,63,4.0,5.0,99,0.00,,,0.45,Wunderground v.1.15,2013-12-07 07:25:00,
2013-12-06 22:35:00,36.6,36.3,30.03,ENE,75,4.0,4.0,99,0.00,,,0.45,Wunderground v.1.15,2013-12-07 07:35:00,
2013-12-06 22:40:00,36.6,36.3,30.03,East,79,3.0,3.0,99,0.00,,,0.45,Wunderground v.1.15,2013-12-07 07:40:00,
2013-12-06 22:45:00,36.5,36.2,30.03,ENE,78,3.0,3.0,99,0.00,,,0.45,Wunderground v.1.15,2013-12-07 07:45:00,
2013-12-06 22:50:00,36.5,36.2,30.03,ENE,71,3.0,6.0,99,0.00,,,0.45,Wunderground v.1.15,2013-12-07 07:50:00,
2013-12-06 22:55:00,36.5,36.2,30.03,ENE,69,4.0,6.0,99,0.00,,,0.46,Wunderground v.1.15,2013-12-07 07:55:00,
2013-12-06 23:00:00,36.5,36.2,30.03,East,90,4.0,4.0,99,0.00,,,0.46,Wunderground v.1.15,2013-12-07 08:00:00,
2013-12-06 23:05:00,36.4,36.1,30.03,East,83,3.0,4.0,99,0.00,,,0.46,Wunderground v.1.15,2013-12-07 08:05:00,
2013-12-06 23:10:00,36.4,36.1,30.03,ENE,70,3.0,3.0,99,0.00,,,0.46,Wunderground v.1.15,2013-12-07 08:10:00,
2013-12-06 23:15:00,36.2,35.9,30.03,ENE,74,3.0,3.0,99,0.00,,,0.47,Wunderground v.1.15,2013-12-07 08:15:00,
2013-12-06 23:20:00,36.2,35.7,30.03,ENE,74,3.0,4.0,98,0.00,,,0.47,Wunderground v.1.15,2013-12-07 08:20:00,
2013-12-06 23:25:00,36.1,35.6,30.03,ENE,78,3.0,4.0,98,0.00,,,0.47,Wunderground v.1.15,2013-12-07 08:25:00,
2013-12-06 23:30:00,36.1,35.8,30.03,East,79,3.0,3.0,99,0.00,,,0.47,Wunderground v.1.15,2013-12-07 08:30:00,
2013-12-06 23:35:00,36.1,35.8,30.04,East,88,3.0,3.0,99,0.00,,,0.47,Wunderground v.1.15,2013-12-07 08:35:00,
2013-12-06 23:40:00,36.0,35.7,30.04,ENE,75,3.0,3.0,99,0.00,,,0.47,Wunderground v.1.15,2013-12-07 08:40:00,
2013-12-06 23:45:00,36.0,35.7,30.04,ENE,76,3.0,3.0,99,0.00,,,0.48,Wunderground v.1.15,2013-12-07 08:45:00,
2013-12-06 23:50:00,35.9,35.6,30.04,East,82,3.0,3.0,99,0.00,,,0.48,Wunderground v.1.15,2013-12-07 08:50:00,
2013-12-06 23:55:00,35.9,35.6,30.04,East,80,4.0,4.0,99,0.00,,,0.48,Wunderground v.1.15,2013-12-07 08:55:00,